Time;durP1;ratioP1;P1;durP2;ratioP2;P2;SDS_P1;SDS_P2;PMS_P1;PMS_P2;Temp;Humidity;BMP_temperature;BMP_pressure;BME280_temperature;BME280_humidity;BME280_pressure;Samples;Min_cycle;Max_cycle;Signal;HPM_P1;HPM_P2
2021/12/16 00:01:59;;;;;;;38.05;18.9;;;;;;;4.22;100;96748.94;;;;
2021/12/16 00:03:29;;;;;;;39.59999;18.15;;;;;;;4.17;100;96753.44;;;;
2021/12/16 00:05:10;;;;;;;39.59999;18.15;;;;;;;4.17;100;96753.44;;;;
2021/12/16 00:07:07;;;;;;;39.59999;18.15;;;;;;;4.17;100;96753.44;;;;
2021/12/16 00:08:16;;;;;;;39.59999;18.15;;;;;;;4.17;100;96753.44;;;;
2021/12/16 00:09:24;;;;;;;39.59999;18.15;;;;;;;4.17;100;96753.44;;;;
2021/12/16 00:10:32;;;;;;;39.59999;18.15;;;;;;;4.17;100;96753.44;;;;
2021/12/16 00:19:35;;;;;;;39.59999;18.15;;;;;;;4.17;100;96753.44;;;;
2021/12/16 00:30:52;;;;;;;34.95;16.8;;;;;;;4.09;100;96735.6;;;;
2021/12/16 00:31:58;;;;;;;34.95;16.8;;;;;;;4.09;100;96735.6;;;;
2021/12/16 00:33:12;;;;;;;34.95;16.8;;;;;;;4.09;100;96735.6;;;;
2021/12/16 00:34:12;;;;;;;34.95;16.8;;;;;;;4.09;100;96735.6;;;;
2021/12/16 00:35:15;;;;;;;39.4;17.5;;;;;;;4.04;100;96727.23;;;;
2021/12/16 00:36:16;;;;;;;39.4;17.5;;;;;;;4.04;100;96727.23;;;;
2021/12/16 00:37:17;;;;;;;39.4;17.5;;;;;;;4.04;100;96727.23;;;;
2021/12/16 00:38:18;;;;;;;39.4;17.5;;;;;;;4.04;100;96727.23;;;;
2021/12/16 00:39:18;;;;;;;39.4;17.5;;;;;;;4.04;100;96727.23;;;;
2021/12/16 00:40:24;;;;;;;39.4;17.5;;;;;;;4.04;100;96727.23;;;;
2021/12/16 00:41:25;;;;;;;39.4;17.5;;;;;;;4.04;100;96727.23;;;;
2021/12/16 00:42:37;;;;;;;39.4;17.5;;;;;;;4.04;100;96727.23;;;;
2021/12/16 00:43:44;;;;;;;39.4;17.5;;;;;;;4.04;100;96727.23;;;;
2021/12/16 00:45:06;;;;;;;39.4;17.5;;;;;;;4.04;100;96727.23;;;;
2021/12/16 00:46:16;;;;;;;42.15;17.8;;;;;;;3.99;100;96735.71;;;;
2021/12/16 00:47:29;;;;;;;42.15;17.8;;;;;;;3.99;100;96735.71;;;;
2021/12/16 00:48:59;;;;;;;42.15;17.8;;;;;;;3.99;100;96735.71;;;;
2021/12/16 00:50:18;;;;;;;42.15;17.8;;;;;;;3.99;100;96735.71;;;;
2021/12/16 00:56:17;;;;;;;42.15;17.8;;;;;;;3.99;100;96735.71;;;;
2021/12/16 00:57:18;;;;;;;42.15;17.8;;;;;;;3.99;100;96735.71;;;;
2021/12/16 00:58:20;;;;;;;42.15;17.8;;;;;;;3.99;100;96735.71;;;;
2021/12/16 00:59:26;;;;;;;42.15;17.8;;;;;;;3.99;100;96735.71;;;;
2021/12/16 01:00:30;;;;;;;42.15;17.8;;;;;;;3.99;100;96735.71;;;;
2021/12/16 01:01:39;;;;;;;42.15;17.8;;;;;;;3.99;100;96735.71;;;;
2021/12/16 01:02:59;;;;;;;42.15;17.8;;;;;;;3.99;100;96735.71;;;;
2021/12/16 01:04:21;;;;;;;42.15;17.8;;;;;;;3.99;100;96735.71;;;;
2021/12/16 01:05:55;;;;;;;42.15;17.8;;;;;;;3.99;100;96735.71;;;;
2021/12/16 01:07:12;;;;;;;42.15;17.8;;;;;;;3.99;100;96735.71;;;;
2021/12/16 01:08:42;;;;;;;41.75;16.75;;;;;;;3.97;100;96748.49;;;;
2021/12/16 01:33:24;;;;;;;41.75;16.75;;;;;;;3.97;100;96748.49;;;;
2021/12/16 01:37:50;;;;;;;38.39999;16.75;;;;;;;3.95;100;96750.9;;;;
2021/12/16 01:39:25;;;;;;;38.39999;16.75;;;;;;;3.95;100;96750.9;;;;
2021/12/16 01:40:57;;;;;;;38.39999;16.75;;;;;;;3.95;100;96750.9;;;;
2021/12/16 01:42:24;;;;;;;35.45;15.9;;;;;;;3.93;100;96753.74;;;;
2021/12/16 01:45:37;;;;;;;35.45;15.9;;;;;;;3.93;100;96753.74;;;;
2021/12/16 01:46:58;;;;;;;35.45;15.9;;;;;;;3.93;100;96753.74;;;;
2021/12/16 01:48:34;;;;;;;35.45;15.9;;;;;;;3.93;100;96753.74;;;;
2021/12/16 01:49:48;;;;;;;35.45;15.9;;;;;;;3.93;100;96753.74;;;;
2021/12/16 01:50:52;;;;;;;35.45;15.9;;;;;;;3.93;100;96753.74;;;;
2021/12/16 01:52:05;;;;;;;35.65;14.55;;;;;;;3.91;100;96765.14;;;;
2021/12/16 01:53:19;;;;;;;35.65;14.55;;;;;;;3.91;100;96765.14;;;;
2021/12/16 01:54:49;;;;;;;35.65;14.55;;;;;;;3.91;100;96765.14;;;;
2021/12/16 01:55:55;;;;;;;35.65;14.55;;;;;;;3.91;100;96765.14;;;;
2021/12/16 01:57:04;;;;;;;35.65;14.55;;;;;;;3.91;100;96765.14;;;;
2021/12/16 01:58:11;;;;;;;35.65;14.55;;;;;;;3.91;100;96765.14;;;;
2021/12/16 01:59:19;;;;;;;35.65;14.55;;;;;;;3.91;100;96765.14;;;;
2021/12/16 02:00:25;;;;;;;35.65;14.55;;;;;;;3.91;100;96765.14;;;;
2021/12/16 02:01:33;;;;;;;35.65;14.55;;;;;;;3.91;100;96765.14;;;;
2021/12/16 02:02:39;;;;;;;35.65;14.55;;;;;;;3.91;100;96765.14;;;;
2021/12/16 02:03:44;;;;;;;32.15;14.75;;;;;;;3.87;100;96758.37;;;;
2021/12/16 02:05:09;;;;;;;32.15;14.75;;;;;;;3.87;100;96758.37;;;;
2021/12/16 02:06:36;;;;;;;32.15;14.75;;;;;;;3.87;100;96758.37;;;;
2021/12/16 02:07:55;;;;;;;32.15;14.75;;;;;;;3.87;100;96758.37;;;;
2021/12/16 02:08:59;;;;;;;32.15;14.75;;;;;;;3.87;100;96758.37;;;;
2021/12/16 02:10:03;;;;;;;32.15;14.75;;;;;;;3.87;100;96758.37;;;;
2021/12/16 02:11:17;;;;;;;32.15;14.75;;;;;;;3.87;100;96758.37;;;;
2021/12/16 02:12:46;;;;;;;32.15;14.75;;;;;;;3.87;100;96758.37;;;;
2021/12/16 02:28:39;;;;;;;22.95;11.1;;;;;;;3.94;100;96742.56;;;;
2021/12/16 02:29:56;;;;;;;22.95;11.1;;;;;;;3.94;100;96742.56;;;;
2021/12/16 02:34:30;;;;;;;22.95;11.1;;;;;;;3.94;100;96742.56;;;;
2021/12/16 02:35:33;;;;;;;23.6;11.85;;;;;;;3.98;100;96753.24;;;;
2021/12/16 02:36:39;;;;;;;23.6;11.85;;;;;;;3.98;100;96753.24;;;;
2021/12/16 02:37:46;;;;;;;23.6;11.85;;;;;;;3.98;100;96753.24;;;;
2021/12/16 02:38:47;;;;;;;23.6;11.85;;;;;;;3.98;100;96753.24;;;;
2021/12/16 02:39:51;;;;;;;23.6;11.85;;;;;;;3.98;100;96753.24;;;;
2021/12/16 02:40:53;;;;;;;23.6;11.85;;;;;;;3.98;100;96753.24;;;;
2021/12/16 02:41:54;;;;;;;23.6;11.85;;;;;;;3.98;100;96753.24;;;;
2021/12/16 02:43:05;;;;;;;23.6;11.85;;;;;;;3.98;100;96753.24;;;;
2021/12/16 02:44:14;;;;;;;23.6;11.85;;;;;;;3.98;100;96753.24;;;;
2021/12/16 02:50:28;;;;;;;33.7;15.45;;;;;;;3.97;100;96745.75;;;;
2021/12/16 02:51:29;;;;;;;33.7;15.45;;;;;;;3.97;100;96745.75;;;;
2021/12/16 02:52:29;;;;;;;33.7;15.45;;;;;;;3.97;100;96745.75;;;;
2021/12/16 02:53:30;;;;;;;33.7;15.45;;;;;;;3.97;100;96745.75;;;;
2021/12/16 02:54:32;;;;;;;33.7;15.45;;;;;;;3.97;100;96745.75;;;;
2021/12/16 02:55:33;;;;;;;33.7;15.45;;;;;;;3.97;100;96745.75;;;;
2021/12/16 02:56:34;;;;;;;33.7;15.45;;;;;;;3.97;100;96745.75;;;;
2021/12/16 02:57:43;;;;;;;34.45;16.35;;;;;;;3.96;100;96740.96;;;;
2021/12/16 02:58:44;;;;;;;34.45;16.35;;;;;;;3.96;100;96740.96;;;;
2021/12/16 02:59:50;;;;;;;34.45;16.35;;;;;;;3.96;100;96740.96;;;;
2021/12/16 03:00:51;;;;;;;34.45;16.35;;;;;;;3.96;100;96740.96;;;;
2021/12/16 03:02:00;;;;;;;34.45;16.35;;;;;;;3.96;100;96740.96;;;;
2021/12/16 03:03:05;;;;;;;34.45;16.35;;;;;;;3.96;100;96740.96;;;;
2021/12/16 03:04:06;;;;;;;34.45;16.35;;;;;;;3.96;100;96740.96;;;;
2021/12/16 03:05:11;;;;;;;34.45;16.35;;;;;;;3.96;100;96740.96;;;;
2021/12/16 03:06:12;;;;;;;34.45;16.35;;;;;;;3.96;100;96740.96;;;;
2021/12/16 03:07:14;;;;;;;34.45;16.35;;;;;;;3.96;100;96740.96;;;;
2021/12/16 03:08:16;;;;;;;34.45;16.35;;;;;;;3.96;100;96740.96;;;;
2021/12/16 03:09:18;;;;;;;35.89999;17.4;;;;;;;3.92;100;96737.35;;;;
2021/12/16 03:10:56;;;;;;;35.89999;17.4;;;;;;;3.92;100;96737.35;;;;
2021/12/16 03:12:28;;;;;;;35.89999;17.4;;;;;;;3.92;100;96737.35;;;;
2021/12/16 03:13:35;;;;;;;35.89999;17.4;;;;;;;3.92;100;96737.35;;;;
2021/12/16 03:14:43;;;;;;;35.89999;17.4;;;;;;;3.92;100;96737.35;;;;
2021/12/16 03:16:03;;;;;;;35.89999;17.4;;;;;;;3.92;100;96737.35;;;;
2021/12/16 03:17:14;;;;;;;35.89999;17.4;;;;;;;3.92;100;96737.35;;;;
2021/12/16 03:18:24;;;;;;;35.89999;17.4;;;;;;;3.92;100;96737.35;;;;
2021/12/16 03:19:39;;;;;;;36.85;17.65;;;;;;;3.89;100;96755.53;;;;
2021/12/16 03:20:44;;;;;;;36.85;17.65;;;;;;;3.89;100;96755.53;;;;
2021/12/16 03:21:48;;;;;;;36.85;17.65;;;;;;;3.89;100;96755.53;;;;
2021/12/16 03:22:59;;;;;;;36.85;17.65;;;;;;;3.89;100;96755.53;;;;
2021/12/16 03:24:22;;;;;;;36.85;17.65;;;;;;;3.89;100;96755.53;;;;
2021/12/16 03:25:33;;;;;;;36.85;17.65;;;;;;;3.89;100;96755.53;;;;
2021/12/16 03:27:30;;;;;;;36.85;17.65;;;;;;;3.89;100;96755.53;;;;
2021/12/16 03:28:56;;;;;;;36.85;17.65;;;;;;;3.89;100;96755.53;;;;
2021/12/16 03:30:21;;;;;;;36.85;17.65;;;;;;;3.89;100;96755.53;;;;
2021/12/16 03:31:37;;;;;;;45.09999;21.15;;;;;;;3.87;100;96763.71;;;;
2021/12/16 03:32:58;;;;;;;45.09999;21.15;;;;;;;3.87;100;96763.71;;;;
2021/12/16 03:34:21;;;;;;;45.09999;21.15;;;;;;;3.87;100;96763.71;;;;
2021/12/16 03:35:29;;;;;;;45.09999;21.15;;;;;;;3.87;100;96763.71;;;;
2021/12/16 03:36:37;;;;;;;45.09999;21.15;;;;;;;3.87;100;96763.71;;;;
2021/12/16 03:37:53;;;;;;;45.09999;21.15;;;;;;;3.87;100;96763.71;;;;
2021/12/16 03:38:56;;;;;;;45.09999;21.15;;;;;;;3.87;100;96763.71;;;;
2021/12/16 03:40:01;;;;;;;45.09999;21.15;;;;;;;3.87;100;96763.71;;;;
2021/12/16 03:41:07;;;;;;;45.09999;21.15;;;;;;;3.87;100;96763.71;;;;
2021/12/16 03:42:09;;;;;;;43.05;19.9;;;;;;;3.79;100;96763.68;;;;
2021/12/16 03:43:11;;;;;;;43.05;19.9;;;;;;;3.79;100;96763.68;;;;
2021/12/16 03:44:17;;;;;;;43.05;19.9;;;;;;;3.79;100;96763.68;;;;
2021/12/16 03:46:25;;;;;;;43.05;19.9;;;;;;;3.79;100;96763.68;;;;
2021/12/16 03:47:28;;;;;;;43.05;19.9;;;;;;;3.79;100;96763.68;;;;
2021/12/16 03:48:36;;;;;;;43.05;19.9;;;;;;;3.79;100;96763.68;;;;
2021/12/16 03:49:40;;;;;;;43.05;19.9;;;;;;;3.79;100;96763.68;;;;
2021/12/16 03:50:41;;;;;;;43.05;19.9;;;;;;;3.79;100;96763.68;;;;
2021/12/16 03:51:42;;;;;;;43.05;19.9;;;;;;;3.79;100;96763.68;;;;
2021/12/16 03:52:47;;;;;;;34.75;18.3;;;;;;;3.67;100;96780.13;;;;
2021/12/16 03:53:49;;;;;;;34.75;18.3;;;;;;;3.67;100;96780.13;;;;
2021/12/16 03:54:53;;;;;;;34.75;18.3;;;;;;;3.67;100;96780.13;;;;
2021/12/16 03:55:55;;;;;;;34.75;18.3;;;;;;;3.67;100;96780.13;;;;
2021/12/16 03:56:56;;;;;;;34.75;18.3;;;;;;;3.67;100;96780.13;;;;
2021/12/16 03:57:59;;;;;;;34.75;18.3;;;;;;;3.67;100;96780.13;;;;
2021/12/16 03:58:59;;;;;;;34.75;18.3;;;;;;;3.67;100;96780.13;;;;
2021/12/16 04:00:02;;;;;;;34.75;18.3;;;;;;;3.67;100;96780.13;;;;
2021/12/16 04:01:07;;;;;;;34.75;18.3;;;;;;;3.67;100;96780.13;;;;
2021/12/16 04:02:12;;;;;;;34.75;18.3;;;;;;;3.67;100;96780.13;;;;
2021/12/16 04:03:17;;;;;;;43.6;21.2;;;;;;;3.59;100;96783.58;;;;
2021/12/16 04:04:18;;;;;;;43.6;21.2;;;;;;;3.59;100;96783.58;;;;
2021/12/16 04:05:19;;;;;;;43.6;21.2;;;;;;;3.59;100;96783.58;;;;
2021/12/16 04:06:21;;;;;;;43.6;21.2;;;;;;;3.59;100;96783.58;;;;
2021/12/16 04:07:24;;;;;;;43.6;21.2;;;;;;;3.59;100;96783.58;;;;
2021/12/16 04:08:28;;;;;;;43.6;21.2;;;;;;;3.59;100;96783.58;;;;
2021/12/16 04:09:31;;;;;;;43.6;21.2;;;;;;;3.59;100;96783.58;;;;
2021/12/16 04:10:34;;;;;;;43.6;21.2;;;;;;;3.59;100;96783.58;;;;
2021/12/16 04:11:44;;;;;;;43.6;21.2;;;;;;;3.59;100;96783.58;;;;
2021/12/16 04:12:52;;;;;;;43.6;21.2;;;;;;;3.59;100;96783.58;;;;
2021/12/16 04:13:54;;;;;;;43.6;21.2;;;;;;;3.59;100;96783.58;;;;
2021/12/16 04:14:55;;;;;;;46.95;21.95;;;;;;;3.54;100;96797.48;;;;
2021/12/16 04:15:59;;;;;;;46.95;21.95;;;;;;;3.54;100;96797.48;;;;
2021/12/16 04:17:03;;;;;;;46.95;21.95;;;;;;;3.54;100;96797.48;;;;
2021/12/16 04:18:05;;;;;;;46.95;21.95;;;;;;;3.54;100;96797.48;;;;
2021/12/16 04:19:09;;;;;;;46.95;21.95;;;;;;;3.54;100;96797.48;;;;
2021/12/16 04:20:14;;;;;;;46.95;21.95;;;;;;;3.54;100;96797.48;;;;
2021/12/16 04:21:19;;;;;;;46.95;21.95;;;;;;;3.54;100;96797.48;;;;
2021/12/16 04:22:20;;;;;;;46.95;21.95;;;;;;;3.54;100;96797.48;;;;
2021/12/16 04:23:24;;;;;;;46.95;21.95;;;;;;;3.54;100;96797.48;;;;
2021/12/16 04:24:25;;;;;;;46.95;21.95;;;;;;;3.54;100;96797.48;;;;
2021/12/16 04:25:27;;;;;;;47.75;21.55;;;;;;;3.47;100;96808.44;;;;
2021/12/16 04:26:31;;;;;;;47.75;21.55;;;;;;;3.47;100;96808.44;;;;
2021/12/16 04:27:34;;;;;;;47.75;21.55;;;;;;;3.47;100;96808.44;;;;
2021/12/16 04:28:35;;;;;;;47.75;21.55;;;;;;;3.47;100;96808.44;;;;
2021/12/16 04:29:36;;;;;;;47.75;21.55;;;;;;;3.47;100;96808.44;;;;
2021/12/16 04:30:37;;;;;;;47.75;21.55;;;;;;;3.47;100;96808.44;;;;
2021/12/16 04:31:38;;;;;;;47.75;21.55;;;;;;;3.47;100;96808.44;;;;
2021/12/16 04:32:39;;;;;;;47.75;21.55;;;;;;;3.47;100;96808.44;;;;
2021/12/16 04:33:40;;;;;;;47.75;21.55;;;;;;;3.47;100;96808.44;;;;
2021/12/16 04:34:41;;;;;;;47.75;21.55;;;;;;;3.47;100;96808.44;;;;
2021/12/16 04:35:43;;;;;;;47.75;21.55;;;;;;;3.47;100;96808.44;;;;
2021/12/16 04:36:43;;;;;;;37.5;17.95;;;;;;;3.39;100;96816.37;;;;
2021/12/16 04:37:44;;;;;;;37.5;17.95;;;;;;;3.39;100;96816.37;;;;
2021/12/16 04:38:45;;;;;;;37.5;17.95;;;;;;;3.39;100;96816.37;;;;
2021/12/16 04:39:47;;;;;;;37.5;17.95;;;;;;;3.39;100;96816.37;;;;
2021/12/16 04:40:49;;;;;;;37.5;17.95;;;;;;;3.39;100;96816.37;;;;
2021/12/16 04:41:50;;;;;;;37.5;17.95;;;;;;;3.39;100;96816.37;;;;
2021/12/16 04:42:58;;;;;;;37.5;17.95;;;;;;;3.39;100;96816.37;;;;
2021/12/16 04:43:59;;;;;;;37.5;17.95;;;;;;;3.39;100;96816.37;;;;
2021/12/16 04:45:00;;;;;;;37.5;17.95;;;;;;;3.39;100;96816.37;;;;
2021/12/16 04:46:01;;;;;;;37.5;17.95;;;;;;;3.39;100;96816.37;;;;
2021/12/16 04:47:01;;;;;;;37.5;17.95;;;;;;;3.39;100;96816.37;;;;
2021/12/16 04:48:05;;;;;;;40.5;17.45;;;;;;;3.31;100;96821.66;;;;
2021/12/16 04:49:05;;;;;;;40.5;17.45;;;;;;;3.31;100;96821.66;;;;
2021/12/16 04:50:08;;;;;;;40.5;17.45;;;;;;;3.31;100;96821.66;;;;
2021/12/16 04:51:11;;;;;;;40.5;17.45;;;;;;;3.31;100;96821.66;;;;
2021/12/16 04:52:12;;;;;;;40.5;17.45;;;;;;;3.31;100;96821.66;;;;
2021/12/16 04:53:16;;;;;;;40.5;17.45;;;;;;;3.31;100;96821.66;;;;
2021/12/16 04:54:18;;;;;;;40.5;17.45;;;;;;;3.31;100;96821.66;;;;
2021/12/16 04:55:20;;;;;;;40.5;17.45;;;;;;;3.31;100;96821.66;;;;
2021/12/16 04:56:20;;;;;;;40.5;17.45;;;;;;;3.31;100;96821.66;;;;
2021/12/16 04:57:22;;;;;;;40.5;17.45;;;;;;;3.31;100;96821.66;;;;
2021/12/16 04:58:23;;;;;;;40.2;16.55;;;;;;;3.28;100;96836.61;;;;
2021/12/16 04:59:23;;;;;;;40.2;16.55;;;;;;;3.28;100;96836.61;;;;
2021/12/16 05:00:25;;;;;;;40.2;16.55;;;;;;;3.28;100;96836.61;;;;
2021/12/16 05:01:27;;;;;;;40.2;16.55;;;;;;;3.28;100;96836.61;;;;
2021/12/16 05:02:27;;;;;;;40.2;16.55;;;;;;;3.28;100;96836.61;;;;
2021/12/16 05:03:28;;;;;;;40.2;16.55;;;;;;;3.28;100;96836.61;;;;
2021/12/16 05:04:29;;;;;;;40.2;16.55;;;;;;;3.28;100;96836.61;;;;
2021/12/16 05:05:30;;;;;;;40.2;16.55;;;;;;;3.28;100;96836.61;;;;
2021/12/16 05:06:30;;;;;;;40.2;16.55;;;;;;;3.28;100;96836.61;;;;
2021/12/16 05:07:32;;;;;;;40.2;16.55;;;;;;;3.28;100;96836.61;;;;
2021/12/16 05:08:33;;;;;;;40.2;16.55;;;;;;;3.28;100;96836.61;;;;
2021/12/16 05:10:02;;;;;;;35.9;16.5;;;;;;;3.25;100;96847.19;;;;
2021/12/16 05:11:04;;;;;;;35.9;16.5;;;;;;;3.25;100;96847.19;;;;
2021/12/16 05:12:07;;;;;;;35.9;16.5;;;;;;;3.25;100;96847.19;;;;
2021/12/16 05:13:12;;;;;;;35.9;16.5;;;;;;;3.25;100;96847.19;;;;
2021/12/16 05:14:18;;;;;;;35.9;16.5;;;;;;;3.25;100;96847.19;;;;
2021/12/16 05:15:19;;;;;;;35.9;16.5;;;;;;;3.25;100;96847.19;;;;
2021/12/16 05:16:24;;;;;;;35.9;16.5;;;;;;;3.25;100;96847.19;;;;
2021/12/16 05:17:28;;;;;;;35.9;16.5;;;;;;;3.25;100;96847.19;;;;
2021/12/16 05:18:32;;;;;;;35.9;16.5;;;;;;;3.25;100;96847.19;;;;
2021/12/16 05:19:34;;;;;;;35.9;16.5;;;;;;;3.25;100;96847.19;;;;
2021/12/16 05:20:35;;;;;;;33.9;16.2;;;;;;;3.24;100;96856.2;;;;
2021/12/16 05:21:46;;;;;;;33.9;16.2;;;;;;;3.24;100;96856.2;;;;
2021/12/16 05:28:03;;;;;;;33.9;16.2;;;;;;;3.24;100;96856.2;;;;
2021/12/16 05:29:05;;;;;;;33.9;16.2;;;;;;;3.24;100;96856.2;;;;
2021/12/16 05:30:06;;;;;;;33.9;16.2;;;;;;;3.24;100;96856.2;;;;
2021/12/16 05:31:08;;;;;;;31.25;14.3;;;;;;;3.2;100;96862.73;;;;
2021/12/16 05:32:10;;;;;;;31.25;14.3;;;;;;;3.2;100;96862.73;;;;
2021/12/16 05:33:12;;;;;;;31.25;14.3;;;;;;;3.2;100;96862.73;;;;
2021/12/16 05:34:14;;;;;;;31.25;14.3;;;;;;;3.2;100;96862.73;;;;
2021/12/16 05:35:15;;;;;;;31.25;14.3;;;;;;;3.2;100;96862.73;;;;
2021/12/16 05:36:19;;;;;;;31.25;14.3;;;;;;;3.2;100;96862.73;;;;
2021/12/16 05:37:20;;;;;;;31.25;14.3;;;;;;;3.2;100;96862.73;;;;
2021/12/16 05:38:21;;;;;;;31.25;14.3;;;;;;;3.2;100;96862.73;;;;
2021/12/16 05:39:23;;;;;;;31.25;14.3;;;;;;;3.2;100;96862.73;;;;
2021/12/16 05:40:24;;;;;;;31.25;14.3;;;;;;;3.2;100;96862.73;;;;
2021/12/16 05:41:27;;;;;;;31.25;14.3;;;;;;;3.2;100;96862.73;;;;
2021/12/16 05:42:28;;;;;;;26.75;13.2;;;;;;;3.2;100;96871.15;;;;
2021/12/16 05:43:28;;;;;;;26.75;13.2;;;;;;;3.2;100;96871.15;;;;
2021/12/16 05:44:31;;;;;;;26.75;13.2;;;;;;;3.2;100;96871.15;;;;
2021/12/16 05:45:32;;;;;;;26.75;13.2;;;;;;;3.2;100;96871.15;;;;
2021/12/16 05:46:33;;;;;;;26.75;13.2;;;;;;;3.2;100;96871.15;;;;
2021/12/16 05:47:34;;;;;;;26.75;13.2;;;;;;;3.2;100;96871.15;;;;
2021/12/16 05:48:35;;;;;;;26.75;13.2;;;;;;;3.2;100;96871.15;;;;
2021/12/16 05:49:38;;;;;;;26.75;13.2;;;;;;;3.2;100;96871.15;;;;
2021/12/16 05:50:39;;;;;;;26.75;13.2;;;;;;;3.2;100;96871.15;;;;
2021/12/16 05:51:43;;;;;;;26.75;13.2;;;;;;;3.2;100;96871.15;;;;
2021/12/16 05:52:46;;;;;;;26.75;13.2;;;;;;;3.2;100;96871.15;;;;
2021/12/16 05:53:46;;;;;;;29.15;13;;;;;;;3.2;100;96876.08;;;;
2021/12/16 05:54:49;;;;;;;29.15;13;;;;;;;3.2;100;96876.08;;;;
2021/12/16 05:55:50;;;;;;;29.15;13;;;;;;;3.2;100;96876.08;;;;
2021/12/16 05:56:51;;;;;;;29.15;13;;;;;;;3.2;100;96876.08;;;;
2021/12/16 05:57:52;;;;;;;29.15;13;;;;;;;3.2;100;96876.08;;;;
2021/12/16 05:58:53;;;;;;;29.15;13;;;;;;;3.2;100;96876.08;;;;
2021/12/16 05:59:55;;;;;;;29.15;13;;;;;;;3.2;100;96876.08;;;;
2021/12/16 06:00:55;;;;;;;29.15;13;;;;;;;3.2;100;96876.08;;;;
2021/12/16 06:02:00;;;;;;;29.15;13;;;;;;;3.2;100;96876.08;;;;
2021/12/16 06:03:00;;;;;;;29.15;13;;;;;;;3.2;100;96876.08;;;;
2021/12/16 06:04:02;;;;;;;23.6;11.85;;;;;;;3.22;100;96894.2;;;;
2021/12/16 06:05:03;;;;;;;23.6;11.85;;;;;;;3.22;100;96894.2;;;;
2021/12/16 06:06:04;;;;;;;23.6;11.85;;;;;;;3.22;100;96894.2;;;;
2021/12/16 06:07:06;;;;;;;23.6;11.85;;;;;;;3.22;100;96894.2;;;;
2021/12/16 06:08:06;;;;;;;23.6;11.85;;;;;;;3.22;100;96894.2;;;;
2021/12/16 06:09:07;;;;;;;23.6;11.85;;;;;;;3.22;100;96894.2;;;;
2021/12/16 06:10:17;;;;;;;23.6;11.85;;;;;;;3.22;100;96894.2;;;;
2021/12/16 06:11:20;;;;;;;23.6;11.85;;;;;;;3.22;100;96894.2;;;;
2021/12/16 06:12:25;;;;;;;23.6;11.85;;;;;;;3.22;100;96894.2;;;;
2021/12/16 06:13:32;;;;;;;23.6;11.85;;;;;;;3.22;100;96894.2;;;;
2021/12/16 06:14:48;;;;;;;23.6;11.85;;;;;;;3.22;100;96894.2;;;;
2021/12/16 06:22:18;;;;;;;24.55;12.4;;;;;;;3.2;100;96900.51;;;;
2021/12/16 06:22:52;;;;;;;24.55;12.4;;;;;;;3.2;100;96900.51;;;;
2021/12/16 06:29:07;;;;;;;25.5;11.85;;;;;;;3.11;100;96909.42;;;;
2021/12/16 06:30:08;;;;;;;25.5;11.85;;;;;;;3.11;100;96909.42;;;;
2021/12/16 06:31:12;;;;;;;25.5;11.85;;;;;;;3.11;100;96909.42;;;;
2021/12/16 06:32:14;;;;;;;25.5;11.85;;;;;;;3.11;100;96909.42;;;;
2021/12/16 06:33:15;;;;;;;25.5;11.85;;;;;;;3.11;100;96909.42;;;;
2021/12/16 06:34:18;;;;;;;25.5;11.85;;;;;;;3.11;100;96909.42;;;;
2021/12/16 06:35:20;;;;;;;25.5;11.85;;;;;;;3.11;100;96909.42;;;;
2021/12/16 06:36:22;;;;;;;25.5;11.85;;;;;;;3.11;100;96909.42;;;;
2021/12/16 06:37:22;;;;;;;25.7;12.15;;;;;;;3.04;100;96911.02;;;;
2021/12/16 06:38:23;;;;;;;25.7;12.15;;;;;;;3.04;100;96911.02;;;;
2021/12/16 06:39:24;;;;;;;25.7;12.15;;;;;;;3.04;100;96911.02;;;;
2021/12/16 06:40:25;;;;;;;25.7;12.15;;;;;;;3.04;100;96911.02;;;;
2021/12/16 06:41:28;;;;;;;25.7;12.15;;;;;;;3.04;100;96911.02;;;;
2021/12/16 06:42:29;;;;;;;25.7;12.15;;;;;;;3.04;100;96911.02;;;;
2021/12/16 06:43:31;;;;;;;25.7;12.15;;;;;;;3.04;100;96911.02;;;;
2021/12/16 06:44:38;;;;;;;25.7;12.15;;;;;;;3.04;100;96911.02;;;;
2021/12/16 06:45:43;;;;;;;25.7;12.15;;;;;;;3.04;100;96911.02;;;;
2021/12/16 06:46:45;;;;;;;25.7;12.15;;;;;;;3.04;100;96911.02;;;;
2021/12/16 06:47:50;;;;;;;25.7;12.15;;;;;;;3.04;100;96911.02;;;;
2021/12/16 06:48:57;;;;;;;25.3;11.5;;;;;;;3.01;100;96929.16;;;;
2021/12/16 06:49:57;;;;;;;25.3;11.5;;;;;;;3.01;100;96929.16;;;;
2021/12/16 06:50:59;;;;;;;25.3;11.5;;;;;;;3.01;100;96929.16;;;;
2021/12/16 06:52:03;;;;;;;25.3;11.5;;;;;;;3.01;100;96929.16;;;;
2021/12/16 06:53:05;;;;;;;25.3;11.5;;;;;;;3.01;100;96929.16;;;;
2021/12/16 06:54:12;;;;;;;25.3;11.5;;;;;;;3.01;100;96929.16;;;;
2021/12/16 06:55:20;;;;;;;25.3;11.5;;;;;;;3.01;100;96929.16;;;;
2021/12/16 06:56:25;;;;;;;25.3;11.5;;;;;;;3.01;100;96929.16;;;;
2021/12/16 06:57:37;;;;;;;25.3;11.5;;;;;;;3.01;100;96929.16;;;;
2021/12/16 06:58:43;;;;;;;25.3;11.5;;;;;;;3.01;100;96929.16;;;;
2021/12/16 06:59:52;;;;;;;22.5;10.9;;;;;;;2.97;100;96926.43;;;;
2021/12/16 07:01:04;;;;;;;22.5;10.9;;;;;;;2.97;100;96926.43;;;;
2021/12/16 07:02:15;;;;;;;22.5;10.9;;;;;;;2.97;100;96926.43;;;;
2021/12/16 07:03:20;;;;;;;22.5;10.9;;;;;;;2.97;100;96926.43;;;;
2021/12/16 07:04:21;;;;;;;22.5;10.9;;;;;;;2.97;100;96926.43;;;;
2021/12/16 07:05:21;;;;;;;22.5;10.9;;;;;;;2.97;100;96926.43;;;;
2021/12/16 07:06:25;;;;;;;22.5;10.9;;;;;;;2.97;100;96926.43;;;;
2021/12/16 07:07:28;;;;;;;22.5;10.9;;;;;;;2.97;100;96926.43;;;;
2021/12/16 07:08:29;;;;;;;22.5;10.9;;;;;;;2.97;100;96926.43;;;;
2021/12/16 07:09:30;;;;;;;22.5;10.9;;;;;;;2.97;100;96926.43;;;;
2021/12/16 07:10:31;;;;;;;23.75;11.7;;;;;;;2.95;100;96936.83;;;;
2021/12/16 07:11:39;;;;;;;23.75;11.7;;;;;;;2.95;100;96936.83;;;;
2021/12/16 07:12:46;;;;;;;23.75;11.7;;;;;;;2.95;100;96936.83;;;;
2021/12/16 07:13:56;;;;;;;23.75;11.7;;;;;;;2.95;100;96936.83;;;;
2021/12/16 07:14:57;;;;;;;23.75;11.7;;;;;;;2.95;100;96936.83;;;;
2021/12/16 07:15:58;;;;;;;23.75;11.7;;;;;;;2.95;100;96936.83;;;;
2021/12/16 07:16:59;;;;;;;23.75;11.7;;;;;;;2.95;100;96936.83;;;;
2021/12/16 07:18:01;;;;;;;23.75;11.7;;;;;;;2.95;100;96936.83;;;;
2021/12/16 07:19:03;;;;;;;23.75;11.7;;;;;;;2.95;100;96936.83;;;;
2021/12/16 07:20:03;;;;;;;23.75;11.7;;;;;;;2.95;100;96936.83;;;;
2021/12/16 07:21:08;;;;;;;25.3;12.5;;;;;;;2.94;100;96940.99;;;;
2021/12/16 07:22:09;;;;;;;25.3;12.5;;;;;;;2.94;100;96940.99;;;;
2021/12/16 07:23:11;;;;;;;25.3;12.5;;;;;;;2.94;100;96940.99;;;;
2021/12/16 07:24:12;;;;;;;25.3;12.5;;;;;;;2.94;100;96940.99;;;;
2021/12/16 07:25:17;;;;;;;25.3;12.5;;;;;;;2.94;100;96940.99;;;;
2021/12/16 07:26:18;;;;;;;25.3;12.5;;;;;;;2.94;100;96940.99;;;;
2021/12/16 07:27:19;;;;;;;25.3;12.5;;;;;;;2.94;100;96940.99;;;;
2021/12/16 07:28:19;;;;;;;25.3;12.5;;;;;;;2.94;100;96940.99;;;;
2021/12/16 07:29:20;;;;;;;25.3;12.5;;;;;;;2.94;100;96940.99;;;;
2021/12/16 07:30:23;;;;;;;25.3;12.5;;;;;;;2.94;100;96940.99;;;;
2021/12/16 07:31:24;;;;;;;25.3;12.5;;;;;;;2.94;100;96940.99;;;;
2021/12/16 07:32:24;;;;;;;22.85;11.55;;;;;;;2.96;100;96952.78;;;;
2021/12/16 07:33:25;;;;;;;22.85;11.55;;;;;;;2.96;100;96952.78;;;;
2021/12/16 07:34:26;;;;;;;22.85;11.55;;;;;;;2.96;100;96952.78;;;;
2021/12/16 07:35:27;;;;;;;22.85;11.55;;;;;;;2.96;100;96952.78;;;;
2021/12/16 07:36:30;;;;;;;22.85;11.55;;;;;;;2.96;100;96952.78;;;;
2021/12/16 07:37:32;;;;;;;22.85;11.55;;;;;;;2.96;100;96952.78;;;;
2021/12/16 07:38:33;;;;;;;22.85;11.55;;;;;;;2.96;100;96952.78;;;;
2021/12/16 07:39:38;;;;;;;22.85;11.55;;;;;;;2.96;100;96952.78;;;;
2021/12/16 07:40:39;;;;;;;22.85;11.55;;;;;;;2.96;100;96952.78;;;;
2021/12/16 07:41:43;;;;;;;22.85;11.55;;;;;;;2.96;100;96952.78;;;;
2021/12/16 07:42:48;;;;;;;30.65;12.9;;;;;;;3.05;100;96956.73;;;;
2021/12/16 07:43:57;;;;;;;30.65;12.9;;;;;;;3.05;100;96956.73;;;;
2021/12/16 07:44:58;;;;;;;30.65;12.9;;;;;;;3.05;100;96956.73;;;;
2021/12/16 07:45:58;;;;;;;30.65;12.9;;;;;;;3.05;100;96956.73;;;;
2021/12/16 07:46:59;;;;;;;30.65;12.9;;;;;;;3.05;100;96956.73;;;;
2021/12/16 07:48:04;;;;;;;30.65;12.9;;;;;;;3.05;100;96956.73;;;;
2021/12/16 07:49:06;;;;;;;30.65;12.9;;;;;;;3.05;100;96956.73;;;;
2021/12/16 07:50:09;;;;;;;30.65;12.9;;;;;;;3.05;100;96956.73;;;;
2021/12/16 07:51:12;;;;;;;30.65;12.9;;;;;;;3.05;100;96956.73;;;;
2021/12/16 07:52:13;;;;;;;30.65;12.9;;;;;;;3.05;100;96956.73;;;;
2021/12/16 07:53:17;;;;;;;30.65;12.9;;;;;;;3.05;100;96956.73;;;;
2021/12/16 07:54:18;;;;;;;24;11.45;;;;;;;3.27;100;96941.24;;;;
2021/12/16 07:55:20;;;;;;;24;11.45;;;;;;;3.27;100;96941.24;;;;
2021/12/16 07:56:21;;;;;;;24;11.45;;;;;;;3.27;100;96941.24;;;;
2021/12/16 07:57:22;;;;;;;24;11.45;;;;;;;3.27;100;96941.24;;;;
2021/12/16 07:58:23;;;;;;;24;11.45;;;;;;;3.27;100;96941.24;;;;
2021/12/16 07:59:25;;;;;;;24;11.45;;;;;;;3.27;100;96941.24;;;;
2021/12/16 08:00:27;;;;;;;24;11.45;;;;;;;3.27;100;96941.24;;;;
2021/12/16 08:01:31;;;;;;;24;11.45;;;;;;;3.27;100;96941.24;;;;
2021/12/16 08:02:32;;;;;;;24;11.45;;;;;;;3.27;100;96941.24;;;;
2021/12/16 08:03:35;;;;;;;24;11.45;;;;;;;3.27;100;96941.24;;;;
2021/12/16 08:04:41;;;;;;;24;11.45;;;;;;;3.27;100;96941.24;;;;
2021/12/16 08:05:44;;;;;;;21.2;11.75;;;;;;;3.47;100;96955.7;;;;
2021/12/16 08:06:49;;;;;;;21.2;11.75;;;;;;;3.47;100;96955.7;;;;
2021/12/16 08:07:52;;;;;;;21.2;11.75;;;;;;;3.47;100;96955.7;;;;
2021/12/16 08:08:55;;;;;;;21.2;11.75;;;;;;;3.47;100;96955.7;;;;
2021/12/16 08:09:59;;;;;;;21.2;11.75;;;;;;;3.47;100;96955.7;;;;
2021/12/16 08:11:00;;;;;;;21.2;11.75;;;;;;;3.47;100;96955.7;;;;
2021/12/16 08:12:02;;;;;;;21.2;11.75;;;;;;;3.47;100;96955.7;;;;
2021/12/16 08:13:05;;;;;;;21.2;11.75;;;;;;;3.47;100;96955.7;;;;
2021/12/16 08:14:06;;;;;;;21.2;11.75;;;;;;;3.47;100;96955.7;;;;
2021/12/16 08:15:07;;;;;;;21.2;11.75;;;;;;;3.47;100;96955.7;;;;